Time;durP1;ratioP1;P1;durP2;ratioP2;P2;SDS_P1;SDS_P2;PMS_P1;PMS_P2;Temp;Humidity;BMP_temperature;BMP_pressure;BME280_temperature;BME280_humidity;BME280_pressure;Samples;Min_cycle;Max_cycle;Signal;HPM_P1;HPM_P2
2021/03/19 00:02:10;;;;;;;8.25;5.90;;;2.60;90.60;;;;;;5072538;28;20199;-85
2021/03/19 00:04:36;;;;;;;9.15;6.43;;;2.30;90.50;;;;;;5071676;28;20653;-85
2021/03/19 00:07:02;;;;;;;9.18;6.95;;;2.20;91.40;;;;;;5065442;28;20241;-85
2021/03/19 00:09:29;;;;;;;8.40;7.18;;;2.40;91.70;;;;;;5070557;28;20191;-85
2021/03/19 00:11:56;;;;;;;8.98;7.75;;;2.40;92.00;;;;;;5071089;28;20215;-85
2021/03/19 00:14:23;;;;;;;9.80;7.10;;;2.50;92.10;;;;;;5070165;28;20222;-85
2021/03/19 00:16:50;;;;;;;7.50;6.70;;;2.70;92.40;;;;;;5052622;28;20206;-85
2021/03/19 00:19:19;;;;;;;8.95;7.55;;;2.80;92.10;;;;;;5069120;28;20220;-85
2021/03/19 00:21:45;;;;;;;10.32;8.00;;;2.60;91.90;;;;;;5071001;28;20207;-86
2021/03/19 00:24:12;;;;;;;7.63;6.82;;;2.60;92.30;;;;;;5067752;28;20195;-85
2021/03/19 00:26:39;;;;;;;8.55;7.75;;;2.50;92.40;;;;;;5071109;28;20207;-86
2021/03/19 00:29:06;;;;;;;7.20;6.60;;;2.50;92.40;;;;;;5066626;28;20219;-85
2021/03/19 00:31:32;;;;;;;8.13;7.32;;;2.60;92.50;;;;;;5070756;28;20200;-86
2021/03/19 00:33:59;;;;;;;10.00;8.00;;;2.70;92.50;;;;;;5070086;28;20218;-85
2021/03/19 00:36:25;;;;;;;7.68;6.97;;;2.60;92.50;;;;;;5070775;28;20210;-85
2021/03/19 00:38:52;;;;;;;9.30;8.20;;;2.50;92.50;;;;;;5070053;28;20257;-85
2021/03/19 00:41:20;;;;;;;9.82;8.00;;;2.70;92.90;;;;;;5070011;28;20195;-85
2021/03/19 00:43:47;;;;;;;9.55;7.72;;;2.60;92.90;;;;;;5053713;28;20226;-85
2021/03/19 00:46:14;;;;;;;8.60;7.78;;;2.60;93.10;;;;;;5070681;28;20211;-85
2021/03/19 00:48:40;;;;;;;9.25;8.02;;;2.50;93.00;;;;;;5070306;28;20192;-85
2021/03/19 00:51:07;;;;;;;11.98;8.52;;;2.50;93.40;;;;;;5069256;28;20195;-85
2021/03/19 00:53:34;;;;;;;9.38;7.72;;;2.60;94.00;;;;;;5069833;28;20207;-86
2021/03/19 00:56:00;;;;;;;11.55;8.80;;;2.90;94.20;;;;;;5070221;28;20269;-87
2021/03/19 00:58:27;;;;;;;10.13;9.02;;;2.80;93.90;;;;;;5070303;28;20711;-86
2021/03/19 01:00:53;;;;;;;14.23;10.43;;;2.90;93.90;;;;;;5070289;28;20194;-85
2021/03/19 01:03:21;;;;;;;9.77;8.77;;;2.90;93.80;;;;;;5070029;28;20562;-85
2021/03/19 01:05:48;;;;;;;10.27;9.00;;;3.00;93.70;;;;;;5060697;28;20203;-85
2021/03/19 01:08:15;;;;;;;9.57;8.65;;;3.00;93.10;;;;;;5060954;28;20195;-85
2021/03/19 01:10:43;;;;;;;9.60;7.60;;;2.90;93.30;;;;;;5069846;28;20191;-85
2021/03/19 01:13:10;;;;;;;9.60;7.50;;;2.90;93.60;;;;;;5069923;28;20796;-85
2021/03/19 01:15:37;;;;;;;9.77;8.75;;;2.80;93.60;;;;;;5063306;28;20199;-85
2021/03/19 01:18:05;;;;;;;9.57;7.70;;;2.80;94.10;;;;;;5061298;28;20223;-85
2021/03/19 01:20:33;;;;;;;9.20;8.02;;;2.80;94.00;;;;;;5072340;28;20596;-85
2021/03/19 01:22:59;;;;;;;10.40;8.40;;;2.60;93.70;;;;;;5070361;28;20214;-85
2021/03/19 01:25:28;;;;;;;10.75;9.07;;;2.60;94.40;;;;;;5070095;28;20728;-85
2021/03/19 01:27:54;;;;;;;11.02;9.27;;;2.60;94.80;;;;;;5070485;28;20192;-86
2021/03/19 01:30:24;;;;;;;10.98;8.75;;;2.70;94.80;;;;;;5069965;28;20195;-85
2021/03/19 01:32:51;;;;;;;10.55;8.82;;;2.80;94.40;;;;;;5070233;28;20214;-85
2021/03/19 01:35:21;;;;;;;9.20;8.25;;;2.90;94.20;;;;;;5070041;28;20598;-84
2021/03/19 01:37:49;;;;;;;9.75;8.75;;;2.80;93.90;;;;;;5069925;28;20226;-85
2021/03/19 01:40:19;;;;;;;8.90;8.00;;;2.90;94.20;;;;;;5070212;28;20199;-85
2021/03/19 01:42:47;;;;;;;9.80;8.63;;;2.90;94.00;;;;;;5072989;28;20210;-86
2021/03/19 01:45:46;;;;;;;11.60;8.85;;;2.90;94.20;;;;;;5073204;28;20203;-85
2021/03/19 01:48:50;;;;;;;11.65;8.68;;;2.70;94.30;;;;;;5072628;28;20200;-86
2021/03/19 01:51:54;;;;;;;10.32;9.23;;;2.70;94.50;;;;;;5072584;28;20195;-85
2021/03/19 01:54:58;;;;;;;16.73;9.80;;;2.70;94.50;;;;;;5070629;28;20720;-85
2021/03/19 01:58:01;;;;;;;10.93;8.82;;;2.80;94.20;;;;;;5050952;28;20196;-85
2021/03/19 02:01:05;;;;;;;9.55;8.50;;;2.70;93.80;;;;;;5070192;28;20217;-86
2021/03/19 02:04:09;;;;;;;10.25;9.00;;;2.80;93.80;;;;;;5073917;28;20226;-86
2021/03/19 02:07:13;;;;;;;12.73;9.07;;;2.80;93.70;;;;;;5056473;28;20200;-85
2021/03/19 02:10:18;;;;;;;11.85;9.73;;;2.70;93.60;;;;;;5067749;28;20194;-85
2021/03/19 02:13:23;;;;;;;10.30;8.45;;;2.70;93.70;;;;;;5073517;28;20227;-85
2021/03/19 02:16:28;;;;;;;15.15;10.30;;;2.70;93.50;;;;;;5073016;28;20291;-85
2021/03/19 02:19:33;;;;;;;10.02;9.00;;;2.80;93.60;;;;;;5073255;28;20222;-85
2021/03/19 02:22:39;;;;;;;12.23;10.85;;;2.70;93.40;;;;;;5072937;28;20282;-85
2021/03/19 02:25:43;;;;;;;11.93;10.40;;;2.80;93.60;;;;;;5073103;28;20202;-85
2021/03/19 02:28:48;;;;;;;10.40;9.25;;;2.90;93.60;;;;;;5073253;28;20199;-85
2021/03/19 02:31:15;;;;;;;13.95;11.35;;;2.70;93.20;;;;;;5072488;28;20804;-85
2021/03/19 02:33:52;;;;;;;20.23;10.90;;;2.70;93.30;;;;;;5074457;28;20202;-85
2021/03/19 02:36:22;;;;;;;14.43;10.88;;;2.60;93.20;;;;;;5074610;28;20253;-85
2021/03/19 02:38:50;;;;;;;12.88;10.50;;;2.60;93.40;;;;;;5073409;28;20215;-85
2021/03/19 02:41:17;;;;;;;12.25;10.98;;;2.60;93.30;;;;;;5073762;28;20699;-85
2021/03/19 02:43:45;;;;;;;11.70;10.60;;;2.60;93.40;;;;;;5072532;28;20261;-85
2021/03/19 02:46:13;;;;;;;10.88;9.77;;;2.60;93.40;;;;;;5073433;28;20207;-85
2021/03/19 02:48:40;;;;;;;13.30;10.88;;;2.60;93.60;;;;;;5072110;28;20236;-85
2021/03/19 02:51:10;;;;;;;11.35;9.95;;;2.70;93.90;;;;;;5073063;28;20195;-85
2021/03/19 02:53:38;;;;;;;14.77;12.13;;;2.70;93.70;;;;;;5072295;28;20284;-86
2021/03/19 02:56:12;;;;;;;14.85;11.32;;;2.70;93.60;;;;;;5072463;28;20577;-84
2021/03/19 02:58:40;;;;;;;13.05;10.43;;;2.80;93.50;;;;;;5072487;28;20577;-85
2021/03/19 03:01:08;;;;;;;14.70;11.57;;;2.80;93.20;;;;;;5071801;28;20200;-85
2021/03/19 03:03:35;;;;;;;15.23;11.02;;;2.80;93.00;;;;;;5071960;28;20245;-85
2021/03/19 03:06:03;;;;;;;11.70;10.30;;;2.70;92.80;;;;;;5060580;28;20587;-85
2021/03/19 03:08:32;;;;;;;12.90;11.30;;;2.70;92.80;;;;;;5060488;28;20279;-85
2021/03/19 03:10:59;;;;;;;12.73;11.52;;;2.80;93.00;;;;;;5072404;28;20589;-85
2021/03/19 03:13:25;;;;;;;13.00;11.68;;;2.70;93.10;;;;;;5071650;28;20715;-86
2021/03/19 03:15:52;;;;;;;14.95;12.32;;;2.70;93.50;;;;;;5060927;28;20223;-84
2021/03/19 03:18:19;;;;;;;15.38;12.10;;;2.70;93.30;;;;;;5058184;28;20226;-85
2021/03/19 03:20:49;;;;;;;12.63;11.30;;;2.80;93.20;;;;;;5071917;28;20203;-85
2021/03/19 03:23:18;;;;;;;13.93;12.43;;;2.80;93.00;;;;;;5070835;28;20241;-85
2021/03/19 03:25:45;;;;;;;14.68;11.35;;;2.90;92.90;;;;;;5061508;28;20203;-85
2021/03/19 03:28:12;;;;;;;14.30;11.65;;;2.80;92.80;;;;;;5071653;28;20225;-85
2021/03/19 03:30:42;;;;;;;16.15;11.40;;;2.80;92.60;;;;;;5071255;28;20207;-84
2021/03/19 03:33:09;;;;;;;15.07;11.25;;;2.80;92.80;;;;;;5071557;28;20203;-85
2021/03/19 03:35:35;;;;;;;11.88;9.63;;;2.80;92.80;;;;;;5071250;28;20248;-85
2021/03/19 03:38:04;;;;;;;14.63;10.68;;;2.80;93.10;;;;;;5071625;28;20285;-85
2021/03/19 03:40:33;;;;;;;12.55;10.90;;;2.90;93.10;;;;;;5070801;28;20244;-85
2021/03/19 03:43:00;;;;;;;12.05;10.85;;;2.90;92.90;;;;;;5070999;28;20253;-85
2021/03/19 03:45:27;;;;;;;14.07;11.50;;;3.00;92.70;;;;;;5071378;28;20252;-85
2021/03/19 03:47:53;;;;;;;12.48;11.25;;;2.90;92.60;;;;;;5071319;28;20253;-86
2021/03/19 03:50:27;;;;;;;11.95;10.65;;;3.00;92.90;;;;;;5064779;28;20219;-85
2021/03/19 03:52:54;;;;;;;12.40;10.38;;;3.00;92.80;;;;;;5071227;28;20253;-85
2021/03/19 03:55:21;;;;;;;13.32;11.70;;;3.10;92.60;;;;;;5070619;28;20479;-85
2021/03/19 03:57:48;;;;;;;13.23;11.30;;;3.00;92.80;;;;;;5071146;28;20187;-85
2021/03/19 04:00:21;;;;;;;13.48;11.00;;;3.00;93.10;;;;;;5070786;28;20211;-85
2021/03/19 04:02:47;;;;;;;13.45;11.63;;;3.00;92.60;;;;;;5070808;28;20206;-85
2021/03/19 04:05:22;;;;;;;12.95;11.18;;;2.90;92.40;;;;;;5071137;28;20196;-85
2021/03/19 04:07:48;;;;;;;13.77;12.45;;;3.00;92.80;;;;;;5070664;28;20203;-85
2021/03/19 04:10:15;;;;;;;15.80;12.32;;;2.90;92.60;;;;;;5070807;28;20684;-85
2021/03/19 04:12:43;;;;;;;18.98;12.77;;;3.00;92.70;;;;;;5070502;28;20286;-85
2021/03/19 04:15:11;;;;;;;15.10;12.80;;;3.10;92.60;;;;;;5066038;28;20203;-85
2021/03/19 04:17:39;;;;;;;12.40;11.10;;;3.00;92.40;;;;;;5056312;28;20199;-84
2021/03/19 04:20:08;;;;;;;13.85;12.10;;;3.00;92.60;;;;;;5070480;28;20226;-85
2021/03/19 04:22:34;;;;;;;13.90;12.32;;;2.90;92.60;;;;;;5069959;28;20284;-85
2021/03/19 04:25:01;;;;;;;13.90;11.82;;;2.90;92.70;;;;;;5071052;28;20207;-85
2021/03/19 04:27:30;;;;;;;13.55;12.18;;;3.10;92.80;;;;;;5070635;28;20790;-84
2021/03/19 04:29:57;;;;;;;14.43;12.70;;;3.20;92.70;;;;;;5071179;28;20573;-85
2021/03/19 04:32:25;;;;;;;14.27;12.77;;;3.20;92.50;;;;;;5069370;28;20200;-85
2021/03/19 04:34:53;;;;;;;15.18;12.27;;;3.10;92.30;;;;;;5070014;28;20203;-85
2021/03/19 04:37:20;;;;;;;12.82;11.43;;;3.10;92.40;;;;;;5070725;28;20195;-85
2021/03/19 04:39:48;;;;;;;14.25;12.30;;;3.00;92.50;;;;;;5070031;28;20222;-84
2021/03/19 04:42:16;;;;;;;13.48;12.07;;;3.00;92.50;;;;;;5070306;28;20199;-84
2021/03/19 04:44:47;;;;;;;13.98;12.57;;;3.00;92.60;;;;;;5070566;28;20199;-85
2021/03/19 04:47:15;;;;;;;14.93;13.32;;;3.10;92.70;;;;;;5070174;28;20195;-84
2021/03/19 04:49:42;;;;;;;13.95;12.38;;;3.10;92.70;;;;;;5070183;28;20195;-85
2021/03/19 04:52:09;;;;;;;14.73;13.20;;;3.10;92.40;;;;;;5071041;28;20211;-85
2021/03/19 04:54:36;;;;;;;15.68;13.65;;;3.00;92.40;;;;;;5070175;28;20188;-85
2021/03/19 04:57:04;;;;;;;14.82;13.20;;;3.00;92.90;;;;;;5070583;28;20237;-85
2021/03/19 04:59:31;;;;;;;13.93;12.52;;;3.10;93.30;;;;;;5069704;28;20221;-85
2021/03/19 05:01:59;;;;;;;15.35;13.68;;;3.20;93.20;;;;;;5070042;28;20218;-85
2021/03/19 05:04:27;;;;;;;15.77;13.30;;;3.20;93.10;;;;;;5069757;28;20195;-85
2021/03/19 05:07:00;;;;;;;15.07;13.25;;;3.20;92.90;;;;;;5052277;28;20650;-85
2021/03/19 05:09:28;;;;;;;13.57;12.02;;;3.10;92.70;;;;;;5050405;28;20621;-85
2021/03/19 05:11:56;;;;;;;17.63;13.73;;;3.20;92.80;;;;;;5067874;28;20199;-84
2021/03/19 05:14:23;;;;;;;16.98;13.85;;;3.20;93.00;;;;;;5068895;28;20195;-84
2021/03/19 05:16:50;;;;;;;16.05;14.45;;;3.20;92.80;;;;;;5070525;28;20256;-85
2021/03/19 05:19:18;;;;;;;15.57;13.85;;;3.40;92.50;;;;;;5069039;28;20215;-85
2021/03/19 05:21:45;;;;;;;16.98;14.30;;;3.30;92.40;;;;;;5070320;28;20679;-85
2021/03/19 05:24:11;;;;;;;16.38;13.45;;;3.30;92.50;;;;;;5069493;28;20665;-85
2021/03/19 05:26:40;;;;;;;16.13;13.20;;;3.30;92.70;;;;;;5069923;28;20206;-85
2021/03/19 05:29:08;;;;;;;15.23;13.38;;;3.10;93.00;;;;;;5069862;28;20183;-85
2021/03/19 05:31:35;;;;;;;14.38;12.88;;;2.90;93.30;;;;;;5069406;28;20229;-85
2021/03/19 05:34:02;;;;;;;15.27;13.60;;;2.90;93.50;;;;;;5069863;28;20600;-85
2021/03/19 05:36:31;;;;;;;15.52;13.93;;;3.00;93.50;;;;;;5069992;28;20568;-85
2021/03/19 05:38:57;;;;;;;16.42;12.68;;;3.10;93.20;;;;;;5072526;28;20659;-85
2021/03/19 05:41:28;;;;;;;14.63;13.05;;;3.10;93.20;;;;;;5074108;28;20207;-85
2021/03/19 05:43:59;;;;;;;15.85;13.70;;;3.20;93.20;;;;;;5073451;28;20928;-85
2021/03/19 05:46:31;;;;;;;18.75;14.57;;;3.20;93.00;;;;;;5073909;28;20268;-85
2021/03/19 05:49:00;;;;;;;15.73;13.10;;;3.30;93.00;;;;;;5073561;28;20195;-85
2021/03/19 05:51:34;;;;;;;17.88;14.57;;;3.30;92.80;;;;;;5073777;28;20210;-84
2021/03/19 05:54:12;;;;;;;19.33;14.27;;;3.20;92.70;;;;;;5072664;28;20211;-85
2021/03/19 05:56:38;;;;;;;15.35;12.95;;;3.30;92.80;;;;;;5073940;28;20195;-84
2021/03/19 05:59:06;;;;;;;13.93;12.55;;;3.20;92.50;;;;;;5073061;28;20245;-85
2021/03/19 06:01:34;;;;;;;14.00;12.50;;;3.20;92.60;;;;;;5073439;28;20532;-85
2021/03/19 06:04:01;;;;;;;16.65;12.40;;;3.40;92.80;;;;;;5072889;28;20199;-85
2021/03/19 06:06:50;;;;;;;16.65;13.57;;;3.30;92.60;;;;;;5073167;28;20662;-85
2021/03/19 06:09:29;;;;;;;16.10;13.57;;;3.30;92.70;;;;;;5073160;28;20184;-85
2021/03/19 06:11:58;;;;;;;14.65;13.25;;;3.40;92.70;;;;;;5073864;28;20211;-86
2021/03/19 06:14:28;;;;;;;15.30;13.70;;;3.40;92.40;;;;;;5072684;28;20195;-85
2021/03/19 06:16:59;;;;;;;17.73;13.00;;;3.60;92.40;;;;;;5073237;28;20306;-85
2021/03/19 06:19:34;;;;;;;15.30;13.60;;;3.70;92.00;;;;;;5072199;28;20346;-85
2021/03/19 06:22:07;;;;;;;17.63;13.27;;;3.70;92.00;;;;;;5073035;28;20293;-85
2021/03/19 06:24:36;;;;;;;14.20;12.68;;;3.70;92.10;;;;;;5069195;28;20195;-85
2021/03/19 06:27:20;;;;;;;18.08;14.40;;;3.50;92.00;;;;;;5072914;28;20237;-85
2021/03/19 06:29:51;;;;;;;14.60;13.07;;;3.50;92.60;;;;;;5072753;28;20227;-85
2021/03/19 06:32:30;;;;;;;14.30;12.30;;;3.30;92.70;;;;;;5073239;28;20199;-85
2021/03/19 06:35:03;;;;;;;13.10;11.73;;;2.90;93.20;;;;;;5073198;28;20191;-85
2021/03/19 06:37:33;;;;;;;14.13;12.30;;;2.70;93.60;;;;;;5073360;28;20203;-84
2021/03/19 06:40:03;;;;;;;17.63;13.55;;;2.30;94.10;;;;;;5072539;28;20227;-84
2021/03/19 06:42:34;;;;;;;17.58;13.65;;;2.20;94.90;;;;;;5073026;28;20195;-85
2021/03/19 06:45:07;;;;;;;17.35;13.70;;;2.20;96.10;;;;;;5072598;28;20199;-85
2021/03/19 06:47:40;;;;;;;19.45;15.82;;;2.40;96.60;;;;;;5072666;28;20661;-84
2021/03/19 06:50:12;;;;;;;16.30;14.60;;;2.60;96.90;;;;;;5072220;28;20199;-85
2021/03/19 06:52:38;;;;;;;18.88;14.95;;;2.30;96.10;;;;;;5072354;28;20195;-84
2021/03/19 06:55:26;;;;;;;18.65;14.70;;;2.20;97.20;;;;;;5072707;28;20198;-84
2021/03/19 06:57:53;;;;;;;19.83;15.80;;;2.50;97.70;;;;;;5052973;28;20200;-85
2021/03/19 07:00:35;;;;;;;21.45;15.55;;;2.30;97.20;;;;;;5064464;28;20215;-85
2021/03/19 07:03:21;;;;;;;21.23;15.60;;;2.50;97.60;;;;;;5071951;28;20195;-85
2021/03/19 07:06:05;;;;;;;20.73;15.18;;;2.50;97.40;;;;;;5056292;28;20202;-85
2021/03/19 07:08:38;;;;;;;19.70;15.15;;;2.80;97.60;;;;;;5072851;28;20202;-85
2021/03/19 07:11:46;;;;;;;17.85;15.02;;;3.10;97.30;;;;;;5072471;28;20245;-85
2021/03/19 07:14:43;;;;;;;19.88;15.05;;;2.70;96.00;;;;;;5071855;28;20195;-85
2021/03/19 07:17:19;;;;;;;23.45;16.15;;;2.40;97.10;;;;;;5053463;28;20215;-85
2021/03/19 07:19:59;;;;;;;23.25;16.90;;;2.60;97.90;;;;;;5071020;28;20230;-84
2021/03/19 07:22:34;;;;;;;18.20;15.48;;;2.30;97.70;;;;;;5071586;28;20508;-85
2021/03/19 07:25:16;;;;;;;20.45;15.93;;;2.50;98.50;;;;;;5072468;28;20225;-85
2021/03/19 07:27:57;;;;;;;20.55;15.90;;;2.80;98.60;;;;;;5071658;28;20200;-85
2021/03/19 07:30:31;;;;;;;17.42;15.35;;;2.80;97.20;;;;;;5071803;28;20245;-85
2021/03/19 07:33:34;;;;;;;22.75;16.05;;;2.60;97.30;;;;;;5071897;28;20199;-85
2021/03/19 07:36:16;;;;;;;21.83;16.80;;;2.70;97.50;;;;;;5071494;28;20207;-85
2021/03/19 07:39:14;;;;;;;21.80;16.40;;;2.40;97.10;;;;;;5071497;28;20215;-86
2021/03/19 07:41:58;;;;;;;21.58;17.00;;;2.70;98.70;;;;;;5072025;28;20203;-85
2021/03/19 07:44:41;;;;;;;18.33;15.48;;;2.80;97.80;;;;;;5059262;28;20203;-85
2021/03/19 07:47:44;;;;;;;27.80;18.15;;;2.50;98.40;;;;;;5071617;28;20191;-85
2021/03/19 07:50:30;;;;;;;24.25;16.45;;;2.80;98.90;;;;;;5071623;28;20199;-86
2021/03/19 07:53:12;;;;;;;21.95;17.42;;;3.10;98.10;;;;;;5070801;28;20195;-86
2021/03/19 07:55:53;;;;;;;22.05;17.02;;;3.30;97.90;;;;;;5071491;28;20201;-85
2021/03/19 07:58:34;;;;;;;18.50;14.73;;;3.20;97.00;;;;;;5071248;28;20248;-85
2021/03/19 08:01:11;;;;;;;23.95;16.30;;;3.50;97.30;;;;;;5070898;28;20219;-86
2021/03/19 08:03:39;;;;;;;17.90;13.95;;;3.40;97.60;;;;;;5070905;28;20203;-86
2021/03/19 08:06:11;;;;;;;18.73;13.95;;;3.50;97.00;;;;;;5066137;28;20213;-85
2021/03/19 08:08:47;;;;;;;18.02;13.25;;;3.70;96.80;;;;;;5070674;28;20186;-85
2021/03/19 08:11:21;;;;;;;15.30;12.98;;;3.60;96.70;;;;;;5071884;28;20206;-86
2021/03/19 08:14:02;;;;;;;16.92;12.30;;;3.80;96.10;;;;;;5071250;28;20218;-85
2021/03/19 08:16:35;;;;;;;14.25;11.85;;;3.90;96.10;;;;;;5056179;28;20236;-85
2021/03/19 08:19:21;;;;;;;16.35;12.07;;;3.80;95.90;;;;;;5063449;28;20227;-85
2021/03/19 08:21:56;;;;;;;16.60;13.38;;;4.00;96.70;;;;;;5068129;28;20199;-85
2021/03/19 08:24:38;;;;;;;11.55;10.30;;;4.50;96.00;;;;;;5068119;28;20668;-85
2021/03/19 08:27:12;;;;;;;14.77;10.35;;;4.20;95.10;;;;;;5069354;28;20221;-85
2021/03/19 08:29:52;;;;;;;14.27;10.65;;;4.10;95.40;;;;;;5068668;28;20553;-85
2021/03/19 08:32:58;;;;;;;12.88;9.75;;;4.20;95.40;;;;;;5069411;28;20195;-86
2021/03/19 08:35:32;;;;;;;12.90;9.90;;;3.50;95.90;;;;;;5051532;28;20211;-85
2021/03/19 08:38:16;;;;;;;13.05;10.00;;;3.70;97.20;;;;;;5070674;28;20239;-85
2021/03/19 08:40:47;;;;;;;15.23;11.60;;;4.00;96.90;;;;;;5070671;28;20207;-85
2021/03/19 08:43:22;;;;;;;14.95;11.30;;;4.30;96.60;;;;;;5070389;28;20203;-85
2021/03/19 08:45:56;;;;;;;13.15;10.35;;;4.00;96.20;;;;;;5071129;28;20714;-85
2021/03/19 08:48:22;;;;;;;14.23;11.30;;;3.60;95.70;;;;;;5070712;28;20195;-85
2021/03/19 08:50:50;;;;;;;17.92;12.48;;;3.40;96.10;;;;;;5070155;28;20199;-85
2021/03/19 08:53:19;;;;;;;16.40;11.85;;;3.30;97.30;;;;;;5069708;28;20290;-85
2021/03/19 08:55:48;;;;;;;18.90;11.05;;;3.50;97.40;;;;;;5071429;28;20276;-86
2021/03/19 08:58:46;;;;;;;15.80;10.40;;;3.30;97.20;;;;;;5070885;28;20203;-85
2021/03/19 09:01:13;;;;;;;14.27;11.25;;;3.30;97.70;;;;;;5016631;28;20247;-86
2021/03/19 09:03:57;;;;;;;15.98;11.57;;;3.50;97.30;;;;;;5066969;28;20802;-86
2021/03/19 09:06:31;;;;;;;13.13;10.90;;;3.90;97.20;;;;;;5057337;28;20670;-86
2021/03/19 09:09:14;;;;;;;11.43;8.95;;;3.80;96.60;;;;;;5069452;28;20204;-86
2021/03/19 09:12:00;;;;;;;15.32;11.65;;;3.50;97.00;;;;;;5070648;28;20279;-86
2021/03/19 09:14:40;;;;;;;16.95;11.50;;;3.70;97.10;;;;;;5071982;28;20222;-86
2021/03/19 09:17:12;;;;;;;17.30;11.70;;;3.20;97.00;;;;;;5057793;28;20191;-85
2021/03/19 09:20:01;;;;;;;13.40;10.25;;;3.20;97.90;;;;;;5073180;28;20238;-86
2021/03/19 09:22:47;;;;;;;13.35;11.55;;;3.50;98.40;;;;;;5069197;28;20215;-85
2021/03/19 09:25:46;;;;;;;14.05;10.32;;;3.50;98.30;;;;;;5054539;28;20600;-85
2021/03/19 09:28:40;;;;;;;15.48;11.07;;;3.70;97.80;;;;;;5065232;28;20198;-85
2021/03/19 09:31:29;;;;;;;14.77;10.70;;;3.20;97.20;;;;;;5073938;28;20207;-86
2021/03/19 09:34:18;;;;;;;17.70;13.32;;;3.10;98.30;;;;;;5070798;28;20292;-85
2021/03/19 09:37:04;;;;;;;14.48;11.68;;;3.30;97.90;;;;;;5074319;28;20199;-85
2021/03/19 09:39:53;;;;;;;13.00;10.43;;;3.40;98.10;;;;;;5073904;28;20223;-85
2021/03/19 09:42:39;;;;;;;17.38;12.27;;;3.30;97.30;;;;;;5073429;28;20233;-84
2021/03/19 09:45:20;;;;;;;14.73;10.85;;;3.70;98.40;;;;;;5073884;28;20203;-85
2021/03/19 09:47:49;;;;;;;14.07;11.40;;;4.00;96.90;;;;;;5073722;28;20207;-85
2021/03/19 09:50:21;;;;;;;15.20;11.07;;;4.20;95.90;;;;;;5073459;28;20668;-85
2021/03/19 09:52:59;;;;;;;16.42;11.85;;;4.40;95.60;;;;;;5073377;28;20207;-85
2021/03/19 09:55:37;;;;;;;13.13;11.30;;;4.50;94.10;;;;;;5073570;28;20208;-86
2021/03/19 09:58:12;;;;;;;14.88;11.20;;;4.70;94.00;;;;;;5073436;28;20264;-85
2021/03/19 10:00:46;;;;;;;16.38;11.10;;;4.50;93.90;;;;;;5053764;28;20219;-85
2021/03/19 10:03:13;;;;;;;14.05;11.60;;;4.50;94.00;;;;;;5069115;28;20203;-85
2021/03/19 10:05:42;;;;;;;12.32;10.10;;;4.50;94.50;;;;;;5065847;28;20204;-85
2021/03/19 10:08:22;;;;;;;13.32;11.50;;;4.80;94.00;;;;;;5067930;28;20195;-85
2021/03/19 10:10:49;;;;;;;15.10;10.88;;;4.50;93.50;;;;;;5072837;28;20226;-85
2021/03/19 10:13:20;;;;;;;12.95;10.38;;;4.90;94.60;;;;;;5073013;28;20195;-85
2021/03/19 10:15:49;;;;;;;14.95;11.93;;;5.00;93.60;;;;;;5063802;28;20212;-85
2021/03/19 10:18:27;;;;;;;12.65;10.73;;;4.70;94.30;;;;;;5068839;28;20234;-85
2021/03/19 10:20:55;;;;;;;12.45;10.75;;;5.10;94.30;;;;;;5072762;28;20656;-85
2021/03/19 10:23:28;;;;;;;13.43;10.63;;;5.60;93.80;;;;;;5071923;28;20203;-85
2021/03/19 10:26:16;;;;;;;12.48;9.80;;;5.90;93.80;;;;;;5073955;28;20664;-85
2021/03/19 10:28:43;;;;;;;8.60;7.80;;;6.30;91.60;;;;;;5073195;28;20641;-85
2021/03/19 10:31:15;;;;;;;9.05;8.13;;;6.50;90.50;;;;;;5073160;28;20211;-85
2021/03/19 10:33:44;;;;;;;11.20;9.15;;;6.30;88.90;;;;;;5071808;28;20574;-84
2021/03/19 10:36:15;;;;;;;10.55;8.68;;;5.70;89.90;;;;;;5072991;28;20207;-85
2021/03/19 10:38:47;;;;;;;10.57;9.48;;;5.60;90.80;;;;;;5072172;28;20222;-85
2021/03/19 10:41:25;;;;;;;11.00;9.05;;;5.50;91.00;;;;;;5073401;28;20234;-85
2021/03/19 10:43:56;;;;;;;11.50;9.60;;;5.20;91.20;;;;;;5072118;28;20191;-85
2021/03/19 10:46:27;;;;;;;8.43;7.45;;;4.80;91.40;;;;;;5073225;28;20206;-85
2021/03/19 10:48:58;;;;;;;10.30;8.82;;;4.80;91.60;;;;;;5072180;28;20248;-85
2021/03/19 10:51:34;;;;;;;13.23;10.35;;;4.70;92.00;;;;;;5072988;28;20203;-85
2021/03/19 10:54:14;;;;;;;12.07;10.00;;;4.70;92.20;;;;;;5068350;28;20648;-85
2021/03/19 10:56:51;;;;;;;13.38;10.63;;;4.20;93.00;;;;;;5052241;28;20666;-85
2021/03/19 10:59:29;;;;;;;12.20;10.77;;;4.50;94.00;;;;;;5068930;28;20211;-85
2021/03/19 11:02:14;;;;;;;11.93;9.68;;;4.80;93.90;;;;;;5072644;28;20199;-86
2021/03/19 11:04:42;;;;;;;9.27;8.40;;;5.20;93.30;;;;;;5071812;28;20266;-85
2021/03/19 11:07:18;;;;;;;12.57;9.60;;;5.20;92.50;;;;;;5052702;28;20211;-85
2021/03/19 11:10:17;;;;;;;10.02;8.73;;;5.20;92.70;;;;;;5071386;28;20195;-86
2021/03/19 11:12:47;;;;;;;9.73;8.18;;;5.50;92.50;;;;;;5008553;28;20209;-86
2021/03/19 11:15:17;;;;;;;8.15;7.30;;;5.50;92.50;;;;;;5059749;28;20230;-86
2021/03/19 11:17:43;;;;;;;9.95;8.40;;;5.50;92.20;;;;;;5071880;28;20192;-86
2021/03/19 11:20:22;;;;;;;8.82;7.85;;;5.70;92.50;;;;;;5070005;28;20280;-86
2021/03/19 11:22:49;;;;;;;8.23;6.70;;;5.80;92.10;;;;;;5070833;28;20282;-85
2021/03/19 11:25:40;;;;;;;8.40;7.07;;;5.40;91.90;;;;;;5072152;28;20652;-86
2021/03/19 11:28:21;;;;;;;7.15;6.45;;;5.30;92.70;;;;;;5071297;28;20199;-85
2021/03/19 11:30:48;;;;;;;5.97;5.32;;;4.80;91.50;;;;;;5072158;28;20264;-85
2021/03/19 11:33:17;;;;;;;5.70;5.20;;;5.00;92.20;;;;;;5070894;28;20241;-85
2021/03/19 11:36:04;;;;;;;6.55;5.97;;;5.00;92.20;;;;;;5070842;28;20641;-85
2021/03/19 11:38:33;;;;;;;5.30;4.80;;;4.90;92.40;;;;;;5071404;28;20199;-85
2021/03/19 11:41:00;;;;;;;6.57;5.45;;;5.10;92.60;;;;;;5071740;28;20203;-85
2021/03/19 11:43:28;;;;;;;5.80;5.30;;;5.00;91.40;;;;;;5071000;28;20203;-85
2021/03/19 11:45:54;;;;;;;6.28;5.63;;;4.90;92.00;;;;;;5071708;28;20199;-85
2021/03/19 11:48:31;;;;;;;6.75;5.90;;;4.90;92.00;;;;;;5071161;28;20560;-86
2021/03/19 11:51:12;;;;;;;6.85;6.20;;;4.90;92.00;;;;;;5071856;28;20206;-85
2021/03/19 11:53:39;;;;;;;6.05;5.45;;;5.30;92.60;;;;;;5071349;28;20195;-85
2021/03/19 11:56:06;;;;;;;6.22;5.32;;;5.30;91.60;;;;;;5071188;28;20203;-85
2021/03/19 11:58:34;;;;;;;6.00;5.40;;;5.60;91.50;;;;;;5070344;28;20199;-85
2021/03/19 12:01:03;;;;;;;7.55;6.07;;;5.80;90.80;;;;;;5071156;28;20230;-85
2021/03/19 12:03:34;;;;;;;7.50;6.68;;;5.90;88.10;;;;;;5070930;28;20211;-85
2021/03/19 12:06:02;;;;;;;7.90;5.35;;;6.20;89.10;;;;;;5059648;28;20212;-85
2021/03/19 12:08:30;;;;;;;7.07;6.35;;;6.30;87.20;;;;;;5068101;28;20208;-85
2021/03/19 12:10:57;;;;;;;8.23;7.28;;;6.20;86.00;;;;;;5070483;28;20207;-86
2021/03/19 12:13:24;;;;;;;9.90;7.40;;;5.70;88.10;;;;;;5069005;28;20204;-85
2021/03/19 12:15:52;;;;;;;8.15;6.40;;;5.70;90.10;;;;;;5070499;28;20249;-85
2021/03/19 12:18:21;;;;;;;8.25;6.45;;;5.50;90.10;;;;;;5071541;28;20210;-85
2021/03/19 12:20:48;;;;;;;8.68;7.78;;;5.50;90.30;;;;;;5071427;28;20276;-85
2021/03/19 12:23:16;;;;;;;8.88;7.47;;;5.40;90.00;;;;;;5070438;28;20203;-85
2021/03/19 12:25:42;;;;;;;9.52;7.50;;;5.00;89.70;;;;;;5071648;28;20437;-85
2021/03/19 12:28:11;;;;;;;8.77;7.15;;;4.80;89.20;;;;;;5071976;28;20205;-85
2021/03/19 12:30:38;;;;;;;9.32;7.20;;;4.80;88.60;;;;;;5052261;28;20246;-85
2021/03/19 12:33:06;;;;;;;8.45;7.55;;;4.70;87.60;;;;;;5061773;28;20208;-85
2021/03/19 12:35:33;;;;;;;10.68;8.50;;;4.70;87.90;;;;;;5071971;28;20687;-85
2021/03/19 12:37:59;;;;;;;9.45;8.32;;;4.80;88.70;;;;;;5070629;28;20241;-86
2021/03/19 12:40:28;;;;;;;11.75;8.30;;;4.90;89.50;;;;;;5070813;28;20226;-86
2021/03/19 12:42:55;;;;;;;9.85;8.18;;;4.80;88.70;;;;;;5070361;28;20203;-85
2021/03/19 12:45:24;;;;;;;11.07;8.23;;;4.60;90.40;;;;;;5071760;28;20211;-85
2021/03/19 12:47:51;;;;;;;12.48;8.55;;;4.80;90.00;;;;;;5070752;28;20202;-85
2021/03/19 12:50:21;;;;;;;12.68;8.35;;;4.70;89.50;;;;;;5070377;28;20241;-86
2021/03/19 12:52:48;;;;;;;9.60;8.07;;;4.60;88.10;;;;;;5069870;28;20236;-85
2021/03/19 12:55:15;;;;;;;12.50;9.38;;;4.40;90.10;;;;;;5051212;28;20219;-85
2021/03/19 12:57:41;;;;;;;11.20;9.60;;;4.60;90.70;;;;;;5053806;28;20207;-85
2021/03/19 13:00:10;;;;;;;12.60;9.65;;;4.40;90.50;;;;;;5070758;28;20276;-85
2021/03/19 13:02:36;;;;;;;14.48;10.82;;;4.40;91.10;;;;;;5069703;28;20207;-85
2021/03/19 13:05:03;;;;;;;12.07;10.27;;;4.20;90.90;;;;;;5050513;28;20211;-86
2021/03/19 13:07:31;;;;;;;13.90;10.40;;;3.90;91.80;;;;;;5050199;28;20227;-85
2021/03/19 13:09:58;;;;;;;16.95;13.00;;;3.60;92.00;;;;;;5070403;28;20203;-85
2021/03/19 13:12:25;;;;;;;18.80;12.23;;;3.70;92.80;;;;;;5070243;28;20699;-84
2021/03/19 13:14:51;;;;;;;15.32;12.70;;;3.70;93.10;;;;;;5066269;28;20203;-85
2021/03/19 13:17:18;;;;;;;16.42;11.15;;;3.70;93.00;;;;;;5050281;28;20199;-85